createdAt,value
2017-12-23T00:00:20.378Z,23.63
2017-12-23T00:02:47.946Z,25.70
2017-12-23T00:05:15.564Z,21.47
2017-12-23T00:07:43.085Z,22.37
2017-12-23T00:10:10.656Z,22.17
2017-12-23T00:12:38.232Z,24.37
2017-12-23T00:15:05.776Z,23.50
2017-12-23T00:17:33.299Z,31.40
2017-12-23T00:20:01.613Z,29.97
2017-12-23T00:22:29.234Z,27.70
2017-12-23T00:24:56.764Z,25.20
2017-12-23T00:27:24.331Z,26.33
2017-12-23T00:29:51.860Z,27.27
2017-12-23T00:32:19.391Z,30.07
2017-12-23T00:34:46.909Z,25.67
2017-12-23T00:37:14.426Z,26.70
2017-12-23T00:39:41.972Z,28.00
2017-12-23T00:42:09.567Z,27.60
2017-12-23T00:44:37.083Z,28.23
2017-12-23T00:47:04.617Z,32.50
2017-12-23T00:49:32.186Z,35.43
2017-12-23T00:51:59.730Z,27.23
2017-12-23T00:54:28.313Z,32.07
2017-12-23T00:56:57.292Z,33.40
2017-12-23T00:59:25.515Z,30.87
2017-12-23T01:01:53.169Z,28.20
2017-12-23T01:04:20.683Z,29.33
2017-12-23T01:06:48.313Z,29.93
2017-12-23T01:09:16.102Z,31.53
2017-12-23T01:11:43.653Z,28.53
2017-12-23T01:14:11.165Z,29.90
2017-12-23T01:16:38.696Z,35.07
2017-12-23T01:19:06.219Z,26.63
2017-12-23T01:21:33.767Z,33.73
2017-12-23T01:24:02.147Z,29.60
2017-12-23T01:26:29.693Z,27.23
2017-12-23T01:28:57.278Z,28.63
2017-12-23T01:31:24.825Z,25.13
2017-12-23T01:33:52.355Z,27.83
2017-12-23T01:36:19.940Z,25.50
2017-12-23T01:38:48.264Z,31.43
2017-12-23T01:41:15.794Z,29.73
2017-12-23T01:43:43.332Z,30.87
2017-12-23T01:46:10.837Z,32.60
2017-12-23T01:48:38.404Z,32.00
2017-12-23T01:51:05.964Z,29.47
2017-12-23T01:53:33.574Z,28.40
2017-12-23T01:56:01.081Z,27.97
2017-12-23T01:58:29.385Z,26.23
2017-12-23T02:00:56.917Z,28.13
2017-12-23T02:03:24.492Z,27.23
2017-12-23T02:08:30.301Z,31.00
2017-12-23T02:10:57.818Z,29.33
2017-12-23T02:13:25.461Z,27.77
2017-12-23T02:15:53.020Z,27.80
2017-12-23T02:18:27.170Z,32.70
2017-12-23T02:20:55.458Z,26.67
2017-12-23T02:23:23.724Z,28.33
2017-12-23T02:25:51.317Z,26.47
2017-12-23T02:28:18.874Z,28.23
2017-12-23T02:30:46.454Z,28.20
2017-12-23T02:33:13.988Z,27.60
2017-12-23T02:35:41.492Z,27.93
2017-12-23T02:38:09.017Z,26.90
2017-12-23T02:40:36.525Z,28.97
2017-12-23T02:43:04.794Z,29.57
2017-12-23T02:45:32.322Z,29.27
2017-12-23T02:47:59.929Z,31.17
2017-12-23T02:50:27.471Z,28.60
2017-12-23T02:52:56.558Z,30.30
2017-12-23T02:55:24.926Z,31.40
2017-12-23T02:57:52.455Z,29.20
2017-12-23T03:00:19.974Z,25.87
2017-12-23T03:02:47.515Z,33.93
2017-12-23T03:05:15.076Z,29.33
2017-12-23T03:07:42.678Z,34.27
2017-12-23T03:10:10.227Z,27.90
2017-12-23T03:12:37.751Z,31.80
2017-12-23T03:15:06.168Z,33.80
2017-12-23T03:17:33.698Z,30.17
2017-12-23T03:20:07.786Z,32.97
2017-12-23T03:22:35.313Z,33.93
2017-12-23T03:25:02.855Z,35.50
2017-12-23T03:27:30.367Z,34.13
2017-12-23T03:29:57.926Z,37.03
2017-12-23T03:32:25.466Z,34.93
2017-12-23T03:34:53.775Z,37.33
2017-12-23T03:37:21.301Z,36.37
2017-12-23T03:39:48.863Z,44.07
2017-12-23T03:42:16.389Z,36.70
2017-12-23T03:44:44.684Z,41.10
2017-12-23T03:47:12.256Z,44.73
2017-12-23T03:49:39.865Z,43.33
2017-12-23T03:52:08.196Z,43.93
2017-12-23T03:54:36.464Z,39.37
2017-12-23T03:57:04.762Z,41.43
2017-12-23T03:59:32.358Z,48.37
2017-12-23T04:01:59.894Z,42.63
2017-12-23T04:04:28.243Z,40.30
2017-12-23T04:06:56.387Z,39.50
2017-12-23T04:09:24.058Z,38.67
2017-12-23T04:11:51.566Z,43.80
2017-12-23T04:14:19.105Z,42.60
2017-12-23T04:16:46.690Z,38.77
2017-12-23T04:19:14.235Z,40.10
2017-12-23T04:21:41.765Z,40.47
2017-12-23T04:24:10.180Z,38.53
2017-12-23T04:26:37.703Z,40.40
2017-12-23T04:29:05.231Z,39.97
2017-12-23T04:31:32.772Z,39.33
2017-12-23T04:34:01.069Z,35.00
2017-12-23T04:36:29.390Z,39.37
2017-12-23T04:38:56.913Z,36.87
2017-12-23T04:41:24.441Z,36.00
2017-12-23T04:43:52.750Z,33.20
2017-12-23T04:46:20.288Z,39.40
2017-12-23T04:48:47.882Z,35.77
2017-12-23T04:51:16.223Z,41.83
2017-12-23T04:53:43.800Z,40.30
2017-12-23T04:56:12.120Z,35.50
2017-12-23T04:58:39.684Z,40.20
2017-12-23T05:01:07.218Z,35.80
2017-12-23T05:03:34.776Z,36.37
2017-12-23T05:06:02.298Z,34.47
2017-12-23T05:08:29.833Z,38.20
2017-12-23T05:10:57.388Z,36.27
2017-12-23T05:13:24.899Z,37.50
2017-12-23T05:15:52.760Z,32.47
2017-12-23T05:18:20.347Z,37.70
2017-12-23T05:23:21.632Z,36.47
2017-12-23T05:25:49.175Z,38.57
2017-12-23T05:28:16.719Z,38.70
2017-12-23T05:30:44.267Z,34.23
2017-12-23T05:33:11.790Z,39.93
2017-12-23T05:35:39.333Z,38.40
2017-12-23T05:38:07.870Z,40.23
2017-12-23T05:40:36.214Z,41.27
2017-12-23T05:43:03.767Z,39.27
2017-12-23T05:45:31.332Z,40.00
2017-12-23T05:47:58.854Z,39.93
2017-12-23T05:50:26.401Z,35.03
2017-12-23T05:52:54.019Z,33.00
2017-12-23T05:55:21.552Z,38.83
2017-12-23T05:57:49.122Z,35.20
2017-12-23T06:00:16.997Z,31.23
2017-12-23T06:02:45.274Z,30.20
2017-12-23T06:05:12.896Z,37.33
2017-12-23T06:07:40.454Z,31.30
2017-12-23T06:10:08.011Z,33.37
2017-12-23T06:12:35.630Z,30.80
2017-12-23T06:15:03.180Z,33.83
2017-12-23T06:17:30.733Z,33.57
2017-12-23T06:19:59.034Z,29.63
2017-12-23T06:22:27.374Z,34.97
2017-12-23T06:24:55.011Z,29.07
2017-12-23T06:27:23.327Z,32.00
2017-12-23T06:29:50.850Z,32.10
2017-12-23T06:32:18.489Z,30.60
2017-12-23T06:34:46.095Z,36.13
2017-12-23T06:39:52.956Z,26.90
2017-12-23T06:42:21.241Z,33.33
2017-12-23T06:44:49.907Z,28.43
2017-12-23T06:47:17.430Z,29.13
2017-12-23T06:49:45.754Z,29.63
2017-12-23T06:54:51.984Z,31.83
2017-12-23T06:57:20.318Z,31.27
2017-12-23T06:59:48.034Z,26.73
2017-12-23T07:04:55.671Z,30.23
2017-12-23T07:07:30.000Z,34.73
2017-12-23T07:09:58.096Z,35.10
2017-12-23T07:12:26.555Z,32.37
2017-12-23T07:14:54.128Z,32.50
2017-12-23T07:17:21.697Z,32.30
2017-12-23T07:19:49.244Z,31.47
2017-12-23T07:22:16.875Z,33.50
2017-12-23T07:24:44.408Z,32.33
2017-12-23T07:27:12.180Z,30.57
2017-12-23T07:29:39.766Z,31.70
2017-12-23T07:32:08.125Z,34.50
2017-12-23T07:34:35.686Z,31.20
2017-12-23T07:37:03.245Z,30.30
2017-12-23T07:39:30.806Z,32.50
2017-12-23T07:41:58.323Z,28.50
2017-12-23T07:44:26.077Z,31.20
2017-12-23T07:46:53.805Z,25.87
2017-12-23T07:49:21.380Z,27.87
2017-12-23T07:51:49.685Z,30.53
2017-12-23T07:54:17.361Z,32.53
2017-12-23T07:56:44.899Z,33.00
2017-12-23T07:59:12.437Z,29.67
2017-12-23T08:01:39.964Z,30.30
2017-12-23T08:04:07.546Z,30.13
2017-12-23T08:06:35.106Z,26.93
2017-12-23T08:09:02.649Z,28.17
2017-12-23T08:11:30.221Z,29.90
2017-12-23T08:13:57.793Z,30.30
2017-12-23T08:16:25.365Z,28.43
2017-12-23T08:19:00.219Z,25.77
2017-12-23T08:21:27.826Z,30.87
2017-12-23T08:23:55.499Z,25.50
2017-12-23T08:26:23.044Z,28.10
2017-12-23T08:28:50.593Z,25.93
2017-12-23T08:31:18.165Z,26.00
2017-12-23T08:33:45.723Z,27.43
2017-12-23T08:36:13.263Z,27.33
2017-12-23T08:38:40.817Z,28.10
2017-12-23T08:41:08.394Z,28.27
2017-12-23T08:43:35.933Z,28.90
2017-12-23T08:46:04.269Z,25.97
2017-12-23T08:48:31.797Z,27.70
2017-12-23T08:50:59.328Z,27.37
2017-12-23T08:53:27.652Z,24.40
2017-12-23T08:55:55.170Z,25.57
2017-12-23T08:58:23.537Z,23.60
2017-12-23T09:00:51.131Z,25.13
2017-12-23T09:03:18.680Z,25.40
2017-12-23T09:05:46.986Z,25.10
2017-12-23T09:08:14.689Z,26.60
2017-12-23T09:10:42.241Z,25.70
2017-12-23T09:13:09.790Z,26.30
2017-12-23T09:15:37.395Z,28.67
2017-12-23T09:18:04.916Z,25.90
2017-12-23T09:20:32.468Z,24.93
2017-12-23T09:23:00.012Z,24.30
2017-12-23T09:25:27.560Z,26.60
2017-12-23T09:27:55.094Z,21.30
2017-12-23T09:30:22.710Z,23.60
2017-12-23T09:32:50.303Z,19.97
2017-12-23T09:35:18.578Z,20.63
2017-12-23T09:37:46.194Z,22.80
2017-12-23T09:40:13.752Z,25.00
2017-12-23T09:42:41.290Z,23.27
2017-12-23T09:45:08.877Z,21.43
2017-12-23T09:47:36.487Z,21.80
2017-12-23T09:50:04.058Z,24.93
2017-12-23T09:52:32.398Z,18.87
2017-12-23T09:54:59.914Z,20.60
2017-12-23T09:57:27.565Z,20.80
2017-12-23T09:59:56.028Z,20.50
2017-12-23T10:02:23.594Z,17.90
2017-12-23T10:04:51.149Z,18.73
2017-12-23T10:07:20.450Z,21.57
2017-12-23T10:09:48.001Z,18.10
2017-12-23T10:12:16.312Z,22.73
2017-12-23T10:14:44.010Z,21.80
2017-12-23T10:17:11.544Z,19.80
2017-12-23T10:19:39.893Z,20.43
2017-12-23T10:22:07.433Z,19.87
2017-12-23T10:24:35.026Z,21.07
2017-12-23T10:27:02.564Z,20.50
2017-12-23T10:29:30.266Z,18.67
2017-12-23T10:31:57.943Z,20.90
2017-12-23T10:34:25.514Z,17.67
2017-12-23T10:36:53.077Z,23.37
2017-12-23T10:39:20.640Z,16.77
2017-12-23T10:41:48.351Z,19.00
2017-12-23T10:44:16.665Z,21.03
2017-12-23T10:46:44.980Z,15.47
2017-12-23T10:49:12.536Z,17.37
2017-12-23T10:51:40.208Z,15.50
2017-12-23T10:54:07.757Z,16.60
2017-12-23T10:56:35.294Z,14.63
2017-12-23T10:59:02.845Z,17.73
2017-12-23T11:01:31.172Z,16.70
2017-12-23T11:03:58.811Z,14.77
2017-12-23T11:06:26.334Z,14.30
2017-12-23T11:08:54.712Z,16.37
2017-12-23T11:11:22.365Z,18.60
2017-12-23T11:13:49.899Z,20.03
2017-12-23T11:16:17.575Z,18.17
2017-12-23T11:18:46.003Z,15.30
2017-12-23T11:21:14.432Z,15.83
2017-12-23T11:23:41.987Z,13.77
2017-12-23T11:26:09.531Z,15.73
2017-12-23T11:28:37.178Z,20.97
2017-12-23T11:31:04.718Z,13.23
2017-12-23T11:33:32.253Z,16.70
2017-12-23T11:36:00.235Z,18.00
2017-12-23T11:38:28.513Z,16.83
2017-12-23T11:40:56.126Z,13.83
2017-12-23T11:46:04.289Z,19.17
2017-12-23T11:48:31.914Z,13.57
2017-12-23T11:50:59.998Z,18.80
2017-12-23T11:53:27.606Z,16.10
2017-12-23T11:55:55.297Z,16.10
2017-12-23T11:58:22.923Z,18.53
2017-12-23T12:00:50.460Z,15.77
2017-12-23T12:03:18.004Z,15.30
2017-12-23T12:05:46.375Z,23.80
2017-12-23T12:08:13.942Z,13.73
2017-12-23T12:10:41.599Z,13.13
2017-12-23T12:13:09.138Z,13.00
2017-12-23T12:15:36.817Z,15.23
2017-12-23T12:18:04.378Z,15.03
2017-12-23T12:20:31.882Z,13.17
2017-12-23T12:22:59.416Z,19.17
2017-12-23T12:25:26.941Z,22.40
2017-12-23T12:27:54.493Z,12.73
2017-12-23T12:30:22.070Z,13.43
2017-12-23T12:32:49.750Z,14.30
2017-12-23T12:35:18.064Z,18.93
2017-12-23T12:37:46.539Z,17.27
2017-12-23T12:40:14.079Z,14.53
2017-12-23T12:42:42.487Z,23.27
2017-12-23T12:45:10.007Z,15.23
2017-12-23T12:47:37.680Z,11.50
2017-12-23T12:50:05.252Z,11.60
2017-12-23T12:52:32.923Z,16.03
2017-12-23T12:55:00.540Z,17.93
2017-12-23T12:57:28.054Z,11.77
2017-12-23T12:59:55.643Z,23.17
2017-12-23T13:02:23.229Z,11.50
2017-12-23T13:04:50.773Z,13.10
2017-12-23T13:07:19.082Z,9.50
2017-12-23T13:09:46.616Z,10.40
2017-12-23T13:12:14.172Z,11.90
2017-12-23T13:14:41.733Z,12.80
2017-12-23T13:17:09.281Z,15.93
2017-12-23T13:19:36.848Z,12.93
2017-12-23T13:22:04.409Z,11.57
2017-12-23T13:24:31.975Z,14.50
2017-12-23T13:26:59.510Z,10.60
2017-12-23T13:29:27.020Z,9.80
2017-12-23T13:31:54.612Z,13.70
2017-12-23T13:34:22.195Z,13.63
2017-12-23T13:36:49.750Z,10.60
2017-12-23T13:39:17.383Z,14.17
2017-12-23T13:41:44.946Z,14.50
2017-12-23T13:44:12.586Z,19.73
2017-12-23T13:46:40.151Z,11.33
2017-12-23T13:49:08.495Z,11.33
2017-12-23T13:51:42.975Z,10.60
2017-12-23T13:54:10.593Z,14.93
2017-12-23T13:56:38.205Z,14.97
2017-12-23T13:59:05.759Z,13.83
2017-12-23T14:01:33.374Z,11.00
2017-12-23T14:04:01.071Z,11.70
2017-12-23T14:06:28.592Z,11.90
2017-12-23T14:08:56.899Z,12.07
2017-12-23T14:11:25.192Z,18.17
2017-12-23T14:13:53.512Z,12.33
2017-12-23T14:16:21.801Z,13.17
2017-12-23T14:18:56.164Z,9.37
2017-12-23T14:21:23.672Z,9.83
2017-12-23T14:23:51.335Z,12.60
2017-12-23T14:26:18.972Z,12.50
2017-12-23T14:28:46.488Z,16.13
2017-12-23T14:31:14.850Z,16.33
2017-12-23T14:33:42.379Z,11.80
2017-12-23T14:36:09.944Z,16.03
2017-12-23T14:38:37.484Z,18.10
2017-12-23T14:41:05.033Z,10.50
2017-12-23T14:43:32.596Z,15.07
2017-12-23T14:46:00.123Z,12.97
2017-12-23T14:48:27.656Z,9.50
2017-12-23T14:50:55.265Z,12.43
2017-12-23T14:53:22.816Z,18.43
2017-12-23T14:55:51.127Z,13.53
2017-12-23T14:58:19.503Z,14.90
2017-12-23T15:00:47.042Z,13.80
2017-12-23T15:03:14.671Z,14.10
2017-12-23T15:05:42.196Z,13.57
2017-12-23T15:08:09.937Z,11.60
2017-12-23T15:10:37.522Z,11.80
2017-12-23T15:13:05.069Z,25.63
2017-12-23T15:15:32.639Z,12.67
2017-12-23T15:18:00.178Z,10.97
2017-12-23T15:20:28.511Z,14.00
2017-12-23T15:22:56.113Z,14.10
2017-12-23T15:25:23.703Z,11.73
2017-12-23T15:27:52.029Z,16.73
2017-12-23T15:30:20.331Z,12.07
2017-12-23T15:32:48.624Z,11.63
2017-12-23T15:35:16.953Z,15.47
2017-12-23T15:37:44.566Z,12.40
2017-12-23T15:40:12.177Z,17.23
2017-12-23T15:42:39.837Z,18.93
2017-12-23T15:45:07.394Z,13.93
2017-12-23T15:47:34.953Z,13.00
2017-12-23T15:50:02.514Z,11.30
2017-12-23T15:52:30.127Z,18.17
2017-12-23T15:54:58.196Z,15.50
2017-12-23T15:57:25.729Z,12.43
2017-12-23T15:59:53.272Z,13.90
2017-12-23T16:02:21.654Z,11.50
2017-12-23T16:04:49.230Z,13.03
2017-12-23T16:07:16.814Z,13.67
2017-12-23T16:09:44.359Z,12.73
2017-12-23T16:12:11.906Z,16.97
2017-12-23T16:14:39.459Z,15.30
2017-12-23T16:17:07.057Z,22.03
2017-12-23T16:19:34.577Z,15.13
2017-12-23T16:22:02.152Z,13.43
2017-12-23T16:24:30.522Z,14.50
2017-12-23T16:26:58.062Z,12.03
2017-12-23T16:29:25.643Z,18.43
2017-12-23T16:31:53.175Z,14.63
2017-12-23T16:34:21.468Z,17.80
2017-12-23T16:36:50.002Z,13.07
2017-12-23T16:39:17.624Z,18.77
2017-12-23T16:41:45.207Z,18.77
2017-12-23T16:44:12.759Z,17.97
2017-12-23T16:46:41.049Z,15.63
2017-12-23T16:49:08.605Z,15.50
2017-12-23T16:51:36.180Z,18.90
2017-12-23T16:54:03.781Z,14.97
2017-12-23T16:56:31.397Z,18.07
2017-12-23T16:58:58.962Z,14.80
2017-12-23T17:01:26.491Z,19.50
2017-12-23T17:03:54.225Z,15.37
2017-12-23T17:06:21.753Z,17.13
2017-12-23T17:08:49.271Z,17.70
2017-12-23T17:11:17.560Z,17.60
2017-12-23T17:13:45.112Z,19.77
2017-12-23T17:16:12.773Z,18.50
2017-12-23T17:18:40.307Z,23.20
2017-12-23T17:21:07.824Z,19.20
2017-12-23T17:23:36.236Z,15.50
2017-12-23T17:26:03.808Z,18.57
2017-12-23T17:28:43.992Z,20.80
2017-12-23T17:31:11.697Z,20.77
2017-12-23T17:33:39.255Z,19.47
2017-12-23T17:36:06.887Z,20.07
2017-12-23T17:38:34.431Z,21.50
2017-12-23T17:41:01.957Z,14.90
2017-12-23T17:43:29.500Z,17.47
2017-12-23T17:45:57.038Z,16.53
2017-12-23T17:48:24.589Z,19.67
2017-12-23T17:50:52.170Z,18.20
2017-12-23T17:53:20.571Z,18.80
2017-12-23T17:55:48.882Z,18.80
2017-12-23T17:58:17.251Z,19.30
2017-12-23T18:00:44.841Z,18.77
2017-12-23T18:03:12.425Z,21.57
2017-12-23T18:05:40.054Z,21.13
2017-12-23T18:08:07.575Z,21.17
2017-12-23T18:10:35.905Z,24.73
2017-12-23T18:13:03.413Z,19.60
2017-12-23T18:15:31.058Z,21.17
2017-12-23T18:17:58.622Z,24.30
2017-12-23T18:20:27.151Z,23.97
2017-12-23T18:22:54.784Z,25.80
2017-12-23T18:25:22.426Z,20.50
2017-12-23T18:27:50.638Z,22.27
2017-12-23T18:30:18.224Z,22.93
2017-12-23T18:32:45.811Z,23.67
2017-12-23T18:35:13.391Z,23.17
2017-12-23T18:37:41.002Z,20.90
2017-12-23T18:40:08.633Z,20.87
2017-12-23T18:42:36.866Z,23.73
2017-12-23T18:45:04.439Z,25.13
2017-12-23T18:47:31.979Z,24.10
2017-12-23T18:50:00.316Z,24.20
2017-12-23T18:52:27.856Z,21.97
2017-12-23T18:54:56.901Z,24.53
2017-12-23T18:57:24.540Z,20.63
2017-12-23T18:59:52.123Z,20.53
2017-12-23T19:02:19.858Z,20.60
2017-12-23T19:04:47.431Z,19.70
2017-12-23T19:07:14.990Z,18.70
2017-12-23T19:09:42.568Z,18.83
2017-12-23T19:12:10.958Z,19.27
2017-12-23T19:14:38.615Z,19.90
2017-12-23T19:17:06.212Z,17.80
2017-12-23T19:19:33.761Z,22.37
2017-12-23T19:22:02.109Z,20.67
2017-12-23T19:24:29.630Z,18.50
2017-12-23T19:26:57.275Z,22.27
2017-12-23T19:29:25.546Z,22.47
2017-12-23T19:31:53.092Z,18.27
2017-12-23T19:34:20.606Z,19.37
2017-12-23T19:36:48.315Z,18.77
2017-12-23T19:39:15.951Z,16.60
2017-12-23T19:41:43.513Z,20.47
2017-12-23T19:44:11.824Z,20.57
2017-12-23T19:46:39.476Z,17.10
2017-12-23T19:49:07.048Z,16.53
2017-12-23T19:51:34.585Z,17.10
2017-12-23T19:54:02.129Z,20.13
2017-12-23T19:56:29.693Z,18.80
2017-12-23T19:58:57.981Z,15.77
2017-12-23T20:01:25.510Z,16.93
2017-12-23T20:03:53.089Z,20.57
2017-12-23T20:06:20.616Z,26.37
2017-12-23T20:08:48.347Z,17.83
2017-12-23T20:11:16.663Z,19.40
2017-12-23T20:13:44.193Z,18.40
2017-12-23T20:16:11.817Z,16.87
2017-12-23T20:18:39.409Z,18.73
2017-12-23T20:21:06.975Z,16.27
2017-12-23T20:23:34.502Z,17.90
2017-12-23T20:26:02.061Z,19.83
2017-12-23T20:28:29.639Z,19.60
2017-12-23T20:30:57.197Z,19.33
2017-12-23T20:33:25.549Z,18.40
2017-12-23T20:35:53.081Z,27.33
2017-12-23T20:38:20.721Z,23.40
2017-12-23T20:40:48.269Z,23.00
2017-12-23T20:43:15.870Z,32.93
2017-12-23T20:45:43.421Z,31.03
2017-12-23T20:48:10.942Z,31.17
2017-12-23T20:50:38.502Z,28.40
2017-12-23T20:53:06.082Z,29.33
2017-12-23T20:55:33.818Z,30.77
2017-12-23T20:58:02.101Z,32.57
2017-12-23T21:00:29.653Z,30.00
2017-12-23T21:02:57.196Z,29.90
2017-12-23T21:05:24.741Z,30.63
2017-12-23T21:07:52.323Z,41.80
2017-12-23T21:10:19.847Z,30.97
2017-12-23T21:12:47.437Z,32.30
2017-12-23T21:15:15.008Z,31.97
2017-12-23T21:17:42.536Z,39.67
2017-12-23T21:20:10.084Z,33.13
2017-12-23T21:22:37.620Z,30.33
2017-12-23T21:25:05.959Z,33.77
2017-12-23T21:27:33.498Z,32.53
2017-12-23T21:30:01.921Z,32.30
2017-12-23T21:32:30.870Z,30.30
2017-12-23T21:34:58.431Z,28.87
2017-12-23T21:37:25.988Z,35.07
2017-12-23T21:39:53.576Z,28.33
2017-12-23T21:42:21.144Z,33.00
2017-12-23T21:44:48.729Z,34.93
2017-12-23T21:47:16.280Z,32.83
2017-12-23T21:49:43.865Z,31.23
2017-12-23T21:52:11.417Z,36.40
2017-12-23T21:54:38.953Z,35.17
2017-12-23T21:57:06.523Z,33.03
2017-12-23T21:59:34.099Z,31.53
2017-12-23T22:02:01.697Z,35.40
2017-12-23T22:04:29.237Z,29.30
2017-12-23T22:06:56.805Z,35.13
2017-12-23T22:09:25.112Z,31.60
2017-12-23T22:11:53.424Z,29.93
2017-12-23T22:14:21.732Z,30.97
2017-12-23T22:16:50.097Z,33.00
2017-12-23T22:19:17.876Z,30.10
2017-12-23T22:21:45.562Z,38.93
2017-12-23T22:24:13.138Z,31.60
2017-12-23T22:26:41.583Z,38.53
2017-12-23T22:29:09.900Z,36.03
2017-12-23T22:31:37.406Z,30.70
2017-12-23T22:34:04.966Z,32.13
2017-12-23T22:36:32.493Z,33.77
2017-12-23T22:39:00.077Z,31.90
2017-12-23T22:41:27.621Z,35.30
2017-12-23T22:43:55.293Z,32.00
2017-12-23T22:46:22.840Z,28.73
2017-12-23T22:48:50.392Z,29.30
2017-12-23T22:51:17.937Z,30.10
2017-12-23T22:53:45.469Z,31.70
2017-12-23T22:56:13.024Z,31.23
2017-12-23T22:58:40.555Z,29.57
2017-12-23T23:01:08.133Z,30.67
2017-12-23T23:03:35.658Z,25.23
2017-12-23T23:06:03.192Z,27.23
2017-12-23T23:08:31.505Z,30.17
2017-12-23T23:10:59.077Z,32.63
2017-12-23T23:13:26.604Z,30.10
2017-12-23T23:15:54.171Z,24.30
2017-12-23T23:18:21.741Z,29.20
2017-12-23T23:20:49.267Z,26.83
2017-12-23T23:23:16.849Z,30.20
2017-12-23T23:25:44.439Z,29.13
2017-12-23T23:28:11.971Z,27.07
2017-12-23T23:30:40.262Z,29.07
2017-12-23T23:33:07.773Z,30.43
2017-12-23T23:35:36.101Z,27.97
2017-12-23T23:38:03.636Z,32.20
2017-12-23T23:40:31.385Z,28.57
2017-12-23T23:42:59.024Z,26.67
2017-12-23T23:45:26.770Z,27.83
2017-12-23T23:47:54.358Z,28.60
2017-12-23T23:50:21.987Z,30.60
2017-12-23T23:52:49.517Z,26.63
2017-12-23T23:55:17.081Z,26.07
2017-12-23T23:57:44.654Z,28.13
